Otisville, Michigan
Current Conditions -  °F | °C
As of 2:14 AM on Friday 31 Oct 2014 (Local Time) from KD95 Reporting Station
Overcast Overcast  
Wind Chill: 40°   Ceiling: 3700
Heat Index: 44°   Visibility: 10mi
Dew Point: 37°   Wind: 6mph
Humidity: 77%   Direction: 220°SW
Pressure: 29.95"   Gusts: NA
Location:  43.17°N, 83.52°W
Report Text: KD95 310614Z AUTO 22005KT 10SM SCT029 BKN037 OVC110 07/03 A2995 RMK AO2 T00650028
Loading
Personal Weather Stations






























Interactive Weather Map
Tropical Storm Tracking
New forecast layout! Learn more

10-Day Weather Forecast

Advertisements
Track Severe Weather on mobile